sensor_id;sensor_type;location;lat;lon;timestamp;pressure;altitude;pressure_sealevel;temperature;humidity
25156;BME280;21913;52.456;13.634;2023-05-12T00:04:29;100185.22;;;14.90;75.95
25156;BME280;21913;52.456;13.634;2023-05-12T00:09:31;100184.34;;;14.88;75.87
25156;BME280;21913;52.456;13.634;2023-05-12T00:14:34;100187.81;;;14.88;76.05
25156;BME280;21913;52.456;13.634;2023-05-12T00:19:35;100202.59;;;14.88;75.99
25156;BME280;21913;52.456;13.634;2023-05-12T00:24:37;100194.78;;;14.88;76.03
25156;BME280;21913;52.456;13.634;2023-05-12T00:29:39;100204.31;;;14.89;75.78
25156;BME280;21913;52.456;13.634;2023-05-12T00:34:40;100205.19;;;14.88;75.96
25156;BME280;21913;52.456;13.634;2023-05-12T00:39:42;100200.00;;;14.88;76.05
25156;BME280;21913;52.456;13.634;2023-05-12T00:44:43;100205.19;;;14.88;76.00
25156;BME280;21913;52.456;13.634;2023-05-12T00:49:45;100193.91;;;14.87;75.82
25156;BME280;21913;52.456;13.634;2023-05-12T00:54:47;100201.75;;;14.87;75.92
25156;BME280;21913;52.456;13.634;2023-05-12T00:59:49;100202.59;;;14.88;76.05
25156;BME280;21913;52.456;13.634;2023-05-12T01:04:51;100202.59;;;14.88;75.94
25156;BME280;21913;52.456;13.634;2023-05-12T01:09:56;100195.66;;;14.87;75.75
25156;BME280;21913;52.456;13.634;2023-05-12T01:14:58;100198.28;;;14.87;75.88
25156;BME280;21913;52.456;13.634;2023-05-12T01:20:02;100205.22;;;14.86;76.01
25156;BME280;21913;52.456;13.634;2023-05-12T01:25:08;100200.03;;;14.86;76.01
25156;BME280;21913;52.456;13.634;2023-05-12T01:30:14;100200.88;;;14.87;75.77
25156;BME280;21913;52.456;13.634;2023-05-12T01:35:16;100221.72;;;14.87;76.01
25156;BME280;21913;52.456;13.634;2023-05-12T01:40:24;100212.19;;;14.86;75.76
25156;BME280;21913;52.456;13.634;2023-05-12T01:45:27;100215.66;;;14.86;75.83
25156;BME280;21913;52.456;13.634;2023-05-12T01:50:29;100218.25;;;14.86;76.05
25156;BME280;21913;52.456;13.634;2023-05-12T01:55:32;100220.00;;;14.86;75.89
25156;BME280;21913;52.456;13.634;2023-05-12T02:00:33;100218.28;;;14.85;75.68
25156;BME280;21913;52.456;13.634;2023-05-12T02:05:39;100219.16;;;14.85;75.98
25156;BME280;21913;52.456;13.634;2023-05-12T02:10:41;100230.41;;;14.86;76.14
25156;BME280;21913;52.456;13.634;2023-05-12T02:15:42;100226.09;;;14.85;75.91
25156;BME280;21913;52.456;13.634;2023-05-12T02:20:44;100226.09;;;14.85;75.75
25156;BME280;21913;52.456;13.634;2023-05-12T02:25:45;100225.25;;;14.84;75.79
25156;BME280;21913;52.456;13.634;2023-05-12T02:30:48;100235.66;;;14.84;75.97
25156;BME280;21913;52.456;13.634;2023-05-12T02:35:50;100231.31;;;14.85;75.63
25156;BME280;21913;52.456;13.634;2023-05-12T02:40:52;100229.56;;;14.84;75.75
25156;BME280;21913;52.456;13.634;2023-05-12T02:45:54;100229.56;;;14.84;75.75
25156;BME280;21913;52.456;13.634;2023-05-12T02:50:56;100226.09;;;14.85;75.92
25156;BME280;21913;52.456;13.634;2023-05-12T02:55:58;100233.91;;;14.85;75.85
25156;BME280;21913;52.456;13.634;2023-05-12T03:00:59;100223.50;;;14.85;75.82
25156;BME280;21913;52.456;13.634;2023-05-12T03:06:10;100229.56;;;14.84;75.88
25156;BME280;21913;52.456;13.634;2023-05-12T03:11:12;100217.44;;;14.83;75.65
25156;BME280;21913;52.456;13.634;2023-05-12T03:16:13;100232.16;;;14.84;75.64
25156;BME280;21913;52.456;13.634;2023-05-12T03:21:15;100237.38;;;14.84;75.79
25156;BME280;21913;52.456;13.634;2023-05-12T03:26:16;100239.13;;;14.83;75.86
25156;BME280;21913;52.456;13.634;2023-05-12T03:31:20;100231.31;;;14.83;75.57
25156;BME280;21913;52.456;13.634;2023-05-12T03:36:21;100241.72;;;14.83;75.55
25156;BME280;21913;52.456;13.634;2023-05-12T03:41:23;100233.06;;;14.83;75.52
25156;BME280;21913;52.456;13.634;2023-05-12T03:46:25;100236.53;;;14.83;75.69
25156;BME280;21913;52.456;13.634;2023-05-12T03:51:26;100241.72;;;14.83;75.94
25156;BME280;21913;52.456;13.634;2023-05-12T03:56:28;100246.09;;;14.83;75.89
25156;BME280;21913;52.456;13.634;2023-05-12T04:01:29;100247.84;;;14.82;75.77
25156;BME280;21913;52.456;13.634;2023-05-12T04:06:31;100244.38;;;14.82;75.71
25156;BME280;21913;52.456;13.634;2023-05-12T04:11:32;100250.44;;;14.82;75.74
25156;BME280;21913;52.456;13.634;2023-05-12T04:16:34;100266.06;;;14.82;75.57
25156;BME280;21913;52.456;13.634;2023-05-12T04:21:35;100264.34;;;14.81;75.62
25156;BME280;21913;52.456;13.634;2023-05-12T04:26:37;100272.16;;;14.81;75.65
25156;BME280;21913;52.456;13.634;2023-05-12T04:31:39;100278.22;;;14.82;75.79
25156;BME280;21913;52.456;13.634;2023-05-12T04:36:40;100279.09;;;14.82;75.85
25156;BME280;21913;52.456;13.634;2023-05-12T04:41:42;100282.56;;;14.81;75.84
25156;BME280;21913;52.456;13.634;2023-05-12T04:46:44;100291.28;;;14.80;75.76
25156;BME280;21913;52.456;13.634;2023-05-12T04:51:45;100302.56;;;14.81;75.65
25156;BME280;21913;52.456;13.634;2023-05-12T04:56:47;100308.63;;;14.81;75.66
25156;BME280;21913;52.456;13.634;2023-05-12T05:01:49;100312.97;;;14.81;75.88
25156;BME280;21913;52.456;13.634;2023-05-12T05:06:50;100326.88;;;14.80;75.63
25156;BME280;21913;52.456;13.634;2023-05-12T05:11:54;100328.59;;;14.81;75.85
25156;BME280;21913;52.456;13.634;2023-05-12T05:16:55;100339.03;;;14.81;75.84
25156;BME280;21913;52.456;13.634;2023-05-12T05:21:57;100341.66;;;14.79;75.58
25156;BME280;21913;52.456;13.634;2023-05-12T05:26:59;100351.16;;;14.82;75.64
25156;BME280;21913;52.456;13.634;2023-05-12T05:32:01;100349.47;;;14.79;75.81
25156;BME280;21913;52.456;13.634;2023-05-12T05:37:03;100357.28;;;14.79;75.74
25156;BME280;21913;52.456;13.634;2023-05-12T05:42:04;100367.72;;;14.79;75.74
25156;BME280;21913;52.456;13.634;2023-05-12T05:47:07;100370.31;;;14.79;75.65
25156;BME280;21913;52.456;13.634;2023-05-12T05:52:09;100369.41;;;14.79;75.83
25156;BME280;21913;52.456;13.634;2023-05-12T05:57:12;100377.22;;;14.79;75.75
25156;BME280;21913;52.456;13.634;2023-05-12T06:02:13;100383.34;;;14.79;75.68
25156;BME280;21913;52.456;13.634;2023-05-12T06:07:16;100391.16;;;14.79;75.86
25156;BME280;21913;52.456;13.634;2023-05-12T06:12:17;100392.88;;;14.79;75.83
25156;BME280;21913;52.456;13.634;2023-05-12T06:17:19;100399.81;;;14.78;75.87
25156;BME280;21913;52.456;13.634;2023-05-12T06:22:21;100405.88;;;14.79;75.74
25156;BME280;21913;52.456;13.634;2023-05-12T06:27:22;100405.88;;;14.79;75.69
25156;BME280;21913;52.456;13.634;2023-05-12T06:32:24;100412.84;;;14.78;75.67
25156;BME280;21913;52.456;13.634;2023-05-12T06:37:26;100413.69;;;14.79;75.79
25156;BME280;21913;52.456;13.634;2023-05-12T06:42:27;100416.31;;;14.79;75.93
25156;BME280;21913;52.456;13.634;2023-05-12T06:47:30;100413.69;;;14.79;75.58
25156;BME280;21913;52.456;13.634;2023-05-12T06:52:31;100411.97;;;14.78;75.59
25156;BME280;21913;52.456;13.634;2023-05-12T06:57:33;100418.91;;;14.79;75.75
25156;BME280;21913;52.456;13.634;2023-05-12T07:02:34;100417.19;;;14.78;75.75
25156;BME280;21913;52.456;13.634;2023-05-12T07:07:36;100416.31;;;14.79;75.91
25156;BME280;21913;52.456;13.634;2023-05-12T07:12:37;100421.53;;;14.77;75.67
25156;BME280;21913;52.456;13.634;2023-05-12T07:17:39;100417.19;;;14.78;75.88
25156;BME280;21913;52.456;13.634;2023-05-12T07:22:40;100427.59;;;14.78;75.74
25156;BME280;21913;52.456;13.634;2023-05-12T07:27:42;100424.16;;;14.77;75.77
25156;BME280;21913;52.456;13.634;2023-05-12T07:32:43;100428.47;;;14.78;76.00
25156;BME280;21913;52.456;13.634;2023-05-12T07:37:45;100429.34;;;14.77;75.75
25156;BME280;21913;52.456;13.634;2023-05-12T07:42:46;100440.63;;;14.78;75.70
25156;BME280;21913;52.456;13.634;2023-05-12T07:47:49;100437.16;;;14.77;75.78
25156;BME280;21913;52.456;13.634;2023-05-12T07:52:52;100438.03;;;14.78;76.01
25156;BME280;21913;52.456;13.634;2023-05-12T07:57:53;100438.03;;;14.78;76.06
25156;BME280;21913;52.456;13.634;2023-05-12T08:02:55;100431.97;;;14.77;75.87
25156;BME280;21913;52.456;13.634;2023-05-12T08:07:56;100443.25;;;14.78;75.75
25156;BME280;21913;52.456;13.634;2023-05-12T08:12:58;100448.44;;;14.78;75.69
25156;BME280;21913;52.456;13.634;2023-05-12T08:17:59;100454.53;;;14.77;75.74
25156;BME280;21913;52.456;13.634;2023-05-12T08:23:01;100453.69;;;14.76;75.97
25156;BME280;21913;52.456;13.634;2023-05-12T08:28:03;100455.41;;;14.77;75.88
25156;BME280;21913;52.456;13.634;2023-05-12T08:33:04;100451.94;;;14.77;75.77
25156;BME280;21913;52.456;13.634;2023-05-12T08:38:06;100458.00;;;14.77;76.01
25156;BME280;21913;52.456;13.634;2023-05-12T08:43:23;100461.47;;;14.78;75.92
25156;BME280;21913;52.456;13.634;2023-05-12T08:48:25;100465.81;;;14.77;75.78
25156;BME280;21913;52.456;13.634;2023-05-12T08:53:28;100472.78;;;14.77;75.68
25156;BME280;21913;52.456;13.634;2023-05-12T08:58:30;100476.25;;;14.77;75.92
25156;BME280;21913;52.456;13.634;2023-05-12T09:03:40;100464.09;;;14.76;76.02
25156;BME280;21913;52.456;13.634;2023-05-12T09:08:42;100460.63;;;14.77;76.02
25156;BME280;21913;52.456;13.634;2023-05-12T09:19:00;100465.78;;;14.79;75.82
25156;BME280;21913;52.456;13.634;2023-05-12T09:24:04;100457.13;;;14.78;75.68
25156;BME280;21913;52.456;13.634;2023-05-12T09:29:06;100454.50;;;14.81;75.58
25156;BME280;21913;52.456;13.634;2023-05-12T09:34:08;100464.06;;;14.81;75.70
25156;BME280;21913;52.456;13.634;2023-05-12T09:39:10;100459.72;;;14.81;75.67
25156;BME280;21913;52.456;13.634;2023-05-12T09:44:14;100455.34;;;14.82;75.57
25156;BME280;21913;52.456;13.634;2023-05-12T09:49:24;100454.47;;;14.83;75.97
25156;BME280;21913;52.456;13.634;2023-05-12T09:54:29;100461.41;;;14.84;76.04
25156;BME280;21913;52.456;13.634;2023-05-12T09:59:33;100461.41;;;14.84;76.05
25156;BME280;21913;52.456;13.634;2023-05-12T10:04:54;100462.28;;;14.84;75.83
25156;BME280;21913;52.456;13.634;2023-05-12T10:10:00;100449.19;;;14.92;75.78
25156;BME280;21913;52.456;13.634;2023-05-12T10:15:03;100454.22;;;15.04;75.42
25156;BME280;21913;52.456;13.634;2023-05-12T10:20:05;100457.72;;;15.03;75.01
25156;BME280;21913;52.456;13.634;2023-05-12T10:25:08;100460.38;;;14.98;75.50
25156;BME280;21913;52.456;13.634;2023-05-12T10:30:10;100455.22;;;14.95;75.49
25156;BME280;21913;52.456;13.634;2023-05-12T10:35:12;100444.81;;;14.92;75.70
25156;BME280;21913;52.456;13.634;2023-05-12T10:40:22;100444.84;;;14.91;75.51
25156;BME280;21913;52.456;13.634;2023-05-12T10:45:24;100456.16;;;14.90;75.72
25156;BME280;21913;52.456;13.634;2023-05-12T10:50:26;100449.19;;;14.89;76.02
25156;BME280;21913;52.456;13.634;2023-05-12T10:55:33;100442.22;;;14.89;75.63
25156;BME280;21913;52.456;13.634;2023-05-12T11:00:49;100441.38;;;14.89;75.75
25156;BME280;21913;52.456;13.634;2023-05-12T11:06:01;100436.16;;;14.89;75.95
25156;BME280;21913;52.456;13.634;2023-05-12T11:11:03;100435.34;;;14.87;75.81
25156;BME280;21913;52.456;13.634;2023-05-12T11:16:04;100436.19;;;14.87;75.95
25156;BME280;21913;52.456;13.634;2023-05-12T11:21:10;100432.72;;;14.87;75.90
25156;BME280;21913;52.456;13.634;2023-05-12T11:26:18;100438.81;;;14.86;75.88
25156;BME280;21913;52.456;13.634;2023-05-12T11:31:20;100426.66;;;14.86;75.86
25156;BME280;21913;52.456;13.634;2023-05-12T11:36:22;100429.28;;;14.85;75.74
25156;BME280;21913;52.456;13.634;2023-05-12T11:41:24;100428.41;;;14.86;75.58
25156;BME280;21913;52.456;13.634;2023-05-12T11:46:29;100428.41;;;14.86;75.84
25156;BME280;21913;52.456;13.634;2023-05-12T11:51:30;100428.41;;;14.86;75.67
25156;BME280;21913;52.456;13.634;2023-05-12T11:56:32;100425.81;;;14.86;75.84
25156;BME280;21913;52.456;13.634;2023-05-12T12:01:43;100423.19;;;14.86;75.75
25156;BME280;21913;52.456;13.634;2023-05-12T12:06:45;100416.25;;;14.85;75.69
25156;BME280;21913;52.456;13.634;2023-05-12T12:11:46;100431.00;;;14.86;75.74
25156;BME280;21913;52.456;13.634;2023-05-12T12:16:48;100439.69;;;14.86;75.80
25156;BME280;21913;52.456;13.634;2023-05-12T12:21:49;100430.16;;;14.85;75.68
25156;BME280;21913;52.456;13.634;2023-05-12T12:26:51;100446.63;;;14.86;75.48
25156;BME280;21913;52.456;13.634;2023-05-12T12:31:52;100434.50;;;14.85;75.54
25156;BME280;21913;52.456;13.634;2023-05-12T12:36:54;100439.72;;;14.85;75.75
25156;BME280;21913;52.456;13.634;2023-05-12T12:41:55;100442.31;;;14.85;75.58
25156;BME280;21913;52.456;13.634;2023-05-12T12:46:57;100441.47;;;14.84;75.75
25156;BME280;21913;52.456;13.634;2023-05-12T12:51:58;100447.47;;;14.88;74.77
25156;BME280;21913;52.456;13.634;2023-05-12T12:57:00;100452.41;;;15.12;71.59
25156;BME280;21913;52.456;13.634;2023-05-12T13:02:01;100449.47;;;15.40;69.75
25156;BME280;21913;52.456;13.634;2023-05-12T13:07:03;100456.19;;;15.55;67.11
25156;BME280;21913;52.456;13.634;2023-05-12T13:12:05;100444.09;;;15.50;65.75
25156;BME280;21913;52.456;13.634;2023-05-12T13:17:07;100452.13;;;15.35;66.97
25156;BME280;21913;52.456;13.634;2023-05-12T13:22:08;100444.50;;;15.20;68.35
25156;BME280;21913;52.456;13.634;2023-05-12T13:27:10;100442.03;;;15.08;69.67
25156;BME280;21913;52.456;13.634;2023-05-12T13:32:12;100436.91;;;15.00;70.92
25156;BME280;21913;52.456;13.634;2023-05-12T13:37:14;100443.91;;;14.95;71.51
25156;BME280;21913;52.456;13.634;2023-05-12T13:42:15;100430.97;;;14.90;71.94
25156;BME280;21913;52.456;13.634;2023-05-12T13:47:17;100458.75;;;14.88;72.24
25156;BME280;21913;52.456;13.634;2023-05-12T13:52:18;100470.09;;;14.86;72.53
25156;BME280;21913;52.456;13.634;2023-05-12T13:57:20;100468.38;;;14.85;72.54
25156;BME280;21913;52.456;13.634;2023-05-12T14:02:21;100489.19;;;14.83;72.89
25156;BME280;21913;52.456;13.634;2023-05-12T14:07:22;100495.28;;;14.82;72.81
25156;BME280;21913;52.456;13.634;2023-05-12T14:12:24;100485.78;;;14.80;73.03
25156;BME280;21913;52.456;13.634;2023-05-12T14:17:25;100475.34;;;14.78;73.31
25156;BME280;21913;52.456;13.634;2023-05-12T14:22:27;100463.19;;;14.79;73.31
25156;BME280;21913;52.456;13.634;2023-05-12T14:27:28;100453.66;;;14.78;73.62
25156;BME280;21913;52.456;13.634;2023-05-12T14:32:30;100455.41;;;14.77;73.58
25156;BME280;21913;52.456;13.634;2023-05-12T14:37:31;100461.50;;;14.76;73.73
25156;BME280;21913;52.456;13.634;2023-05-12T14:42:33;100463.25;;;14.76;73.94
25156;BME280;21913;52.456;13.634;2023-05-12T14:47:34;100455.44;;;14.76;73.76
25156;BME280;21913;52.456;13.634;2023-05-12T14:52:36;100464.13;;;14.75;74.04
25156;BME280;21913;52.456;13.634;2023-05-12T14:57:40;100459.78;;;14.75;74.00
25156;BME280;21913;52.456;13.634;2023-05-12T15:02:43;100466.72;;;14.75;74.03
25156;BME280;21913;52.456;13.634;2023-05-12T15:07:44;100471.94;;;14.75;74.20
25156;BME280;21913;52.456;13.634;2023-05-12T15:12:46;100471.94;;;14.75;74.23
25156;BME280;21913;52.456;13.634;2023-05-12T15:17:47;100474.53;;;14.75;74.38
25156;BME280;21913;52.456;13.634;2023-05-12T15:22:49;100470.19;;;14.75;74.54
25156;BME280;21913;52.456;13.634;2023-05-12T15:27:50;100471.09;;;14.74;74.53
25156;BME280;21913;52.456;13.634;2023-05-12T15:32:52;100474.53;;;14.75;74.38
25156;BME280;21913;52.456;13.634;2023-05-12T15:37:53;100477.16;;;14.75;74.61
25156;BME280;21913;52.456;13.634;2023-05-12T15:42:55;100473.69;;;14.74;74.49
25156;BME280;21913;52.456;13.634;2023-05-12T15:47:56;100475.44;;;14.73;74.74
25156;BME280;21913;52.456;13.634;2023-05-12T15:52:58;100476.28;;;14.74;74.78
25156;BME280;21913;52.456;13.634;2023-05-12T15:57:59;100469.34;;;14.75;74.50
25156;BME280;21913;52.456;13.634;2023-05-12T16:03:01;100465.88;;;14.74;74.68
25156;BME280;21913;52.456;13.634;2023-05-12T16:08:02;100470.22;;;14.73;74.63
25156;BME280;21913;52.456;13.634;2023-05-12T16:13:04;100472.81;;;14.73;74.65
25156;BME280;21913;52.456;13.634;2023-05-12T16:18:05;100477.16;;;14.75;74.92
25156;BME280;21913;52.456;13.634;2023-05-12T16:23:08;100466.72;;;14.75;74.72
25156;BME280;21913;52.456;13.634;2023-05-12T16:28:09;100466.72;;;14.75;74.84
25156;BME280;21913;52.456;13.634;2023-05-12T16:33:11;100472.81;;;14.75;74.71
25156;BME280;21913;52.456;13.634;2023-05-12T16:38:12;100459.78;;;14.75;74.83
25156;BME280;21913;52.456;13.634;2023-05-12T16:43:14;100466.72;;;14.75;74.86
25156;BME280;21913;52.456;13.634;2023-05-12T16:48:15;100468.44;;;14.76;74.93
25156;BME280;21913;52.456;13.634;2023-05-12T16:53:17;100464.13;;;14.75;74.88
25156;BME280;21913;52.456;13.634;2023-05-12T16:58:18;100461.53;;;14.75;74.75
25156;BME280;21913;52.456;13.634;2023-05-12T17:03:20;100465.84;;;14.76;74.67
25156;BME280;21913;52.456;13.634;2023-05-12T17:08:21;100471.94;;;14.75;74.99
25156;BME280;21913;52.456;13.634;2023-05-12T17:13:23;100478.88;;;14.76;74.77
25156;BME280;21913;52.456;13.634;2023-05-12T17:18:24;100479.75;;;14.75;75.00
25156;BME280;21913;52.456;13.634;2023-05-12T17:23:25;100476.28;;;14.74;75.05
25156;BME280;21913;52.456;13.634;2023-05-12T17:28:27;100481.50;;;14.74;74.75
25156;BME280;21913;52.456;13.634;2023-05-12T17:33:28;100491.06;;;14.73;74.75
25156;BME280;21913;52.456;13.634;2023-05-12T17:38:30;100485.84;;;14.73;74.82
25156;BME280;21913;52.456;13.634;2023-05-12T17:43:31;100494.53;;;14.74;74.81
25156;BME280;21913;52.456;13.634;2023-05-12T17:48:33;100495.38;;;14.75;75.00
25156;BME280;21913;52.456;13.634;2023-05-12T17:53:34;100504.06;;;14.75;74.72
25156;BME280;21913;52.456;13.634;2023-05-12T17:58:36;100502.34;;;14.74;75.15
25156;BME280;21913;52.456;13.634;2023-05-12T18:03:37;100497.13;;;14.72;75.02
25156;BME280;21913;52.456;13.634;2023-05-12T18:08:39;100509.28;;;14.73;74.96
25156;BME280;21913;52.456;13.634;2023-05-12T18:13:40;100513.63;;;14.75;75.08
25156;BME280;21913;52.456;13.634;2023-05-12T18:18:44;100518.81;;;14.75;74.98
25156;BME280;21913;52.456;13.634;2023-05-12T18:23:45;100514.50;;;14.73;75.22
25156;BME280;21913;52.456;13.634;2023-05-12T18:28:47;100529.22;;;14.73;75.23
25156;BME280;21913;52.456;13.634;2023-05-12T18:33:48;100531.81;;;14.76;74.92
25156;BME280;21913;52.456;13.634;2023-05-12T18:38:50;100532.22;;;15.21;71.22
25156;BME280;21913;52.456;13.634;2023-05-12T18:43:51;100536.81;;;15.74;65.41
25156;BME280;21913;52.456;13.634;2023-05-12T18:48:53;100531.88;;;16.18;63.37
25156;BME280;21913;52.456;13.634;2023-05-12T18:53:54;100534.75;;;16.55;62.84
25156;BME280;21913;52.456;13.634;2023-05-12T18:58:56;100548.31;;;16.78;63.10
25156;BME280;21913;52.456;13.634;2023-05-12T19:03:57;100549.78;;;16.95;63.17
25156;BME280;21913;52.456;13.634;2023-05-12T19:08:59;100557.44;;;17.04;63.19
25156;BME280;21913;52.456;13.634;2023-05-12T19:14:00;100562.56;;;17.10;63.38
25156;BME280;21913;52.456;13.634;2023-05-12T19:19:02;100574.69;;;17.14;63.54
25156;BME280;21913;52.456;13.634;2023-05-12T19:24:03;100573.75;;;17.17;63.89
25156;BME280;21913;52.456;13.634;2023-05-12T19:29:05;100574.59;;;17.20;64.03
25156;BME280;21913;52.456;13.634;2023-05-12T19:34:06;100576.34;;;17.20;63.87
25156;BME280;21913;52.456;13.634;2023-05-12T19:39:08;100570.25;;;17.19;64.30
25156;BME280;21913;52.456;13.634;2023-05-12T19:44:09;100576.34;;;17.20;64.18
25156;BME280;21913;52.456;13.634;2023-05-12T19:49:12;100578.06;;;17.21;64.55
25156;BME280;21913;52.456;13.634;2023-05-12T19:54:13;100581.56;;;17.20;64.58
25156;BME280;21913;52.456;13.634;2023-05-12T19:59:15;100579.00;;;17.17;64.68
25156;BME280;21913;52.456;13.634;2023-05-12T20:04:16;100585.13;;;17.16;65.10
25156;BME280;21913;52.456;13.634;2023-05-12T20:09:18;100587.81;;;17.13;65.08
25156;BME280;21913;52.456;13.634;2023-05-12T20:14:19;100595.69;;;17.09;65.03
25156;BME280;21913;52.456;13.634;2023-05-12T20:19:21;100587.88;;;17.06;65.18
25156;BME280;21913;52.456;13.634;2023-05-12T20:24:22;100599.25;;;17.05;65.56
25156;BME280;21913;52.456;13.634;2023-05-12T20:29:24;100601.03;;;17.03;65.64
25156;BME280;21913;52.456;13.634;2023-05-12T20:34:25;100609.78;;;17.01;65.74
25156;BME280;21913;52.456;13.634;2023-05-12T20:39:26;100611.56;;;16.99;65.79
25156;BME280;21913;52.456;13.634;2023-05-12T20:44:28;100613.34;;;16.97;65.95
25156;BME280;21913;52.456;13.634;2023-05-12T20:49:29;100613.41;;;16.94;66.00
25156;BME280;21913;52.456;13.634;2023-05-12T20:54:31;100607.34;;;16.92;66.19
25156;BME280;21913;52.456;13.634;2023-05-12T20:59:33;100609.09;;;16.90;66.10
25156;BME280;21913;52.456;13.634;2023-05-12T21:04:34;100616.16;;;16.86;66.40
25156;BME280;21913;52.456;13.634;2023-05-12T21:09:36;100629.22;;;16.85;66.50
25156;BME280;21913;52.456;13.634;2023-05-12T21:14:38;100620.56;;;16.82;66.56
25156;BME280;21913;52.456;13.634;2023-05-12T21:19:40;100620.59;;;16.79;66.65
25156;BME280;21913;52.456;13.634;2023-05-12T21:24:42;100626.72;;;16.78;66.77
25156;BME280;21913;52.456;13.634;2023-05-12T21:29:43;100628.53;;;16.75;66.87
25156;BME280;21913;52.456;13.634;2023-05-12T21:34:44;100632.91;;;16.73;66.94
25156;BME280;21913;52.456;13.634;2023-05-12T21:39:46;100632.94;;;16.70;67.14
25156;BME280;21913;52.456;13.634;2023-05-12T21:44:51;100631.19;;;16.69;67.21
25156;BME280;21913;52.456;13.634;2023-05-12T21:49:53;100630.34;;;16.67;67.16
25156;BME280;21913;52.456;13.634;2023-05-12T21:54:55;100633.00;;;16.65;67.16
25156;BME280;21913;52.456;13.634;2023-05-12T21:59:56;100639.13;;;16.63;67.39
25156;BME280;21913;52.456;13.634;2023-05-12T22:04:58;100638.25;;;16.62;67.39
25156;BME280;21913;52.456;13.634;2023-05-12T22:09:59;100638.31;;;16.59;67.48
25156;BME280;21913;52.456;13.634;2023-05-12T22:15:01;100635.72;;;16.57;67.43
25156;BME280;21913;52.456;13.634;2023-05-12T22:20:03;100646.19;;;16.56;67.66
25156;BME280;21913;52.456;13.634;2023-05-12T22:25:05;100641.84;;;16.55;67.71
25156;BME280;21913;52.456;13.634;2023-05-12T22:30:07;100647.97;;;16.52;67.60
25156;BME280;21913;52.456;13.634;2023-05-12T22:35:08;100648.88;;;16.51;67.64
25156;BME280;21913;52.456;13.634;2023-05-12T22:40:10;100659.34;;;16.50;67.82
25156;BME280;21913;52.456;13.634;2023-05-12T22:45:12;100656.75;;;16.48;68.09
25156;BME280;21913;52.456;13.634;2023-05-12T22:50:13;100653.28;;;16.46;68.10
25156;BME280;21913;52.456;13.634;2023-05-12T22:55:14;100650.75;;;16.43;67.89
25156;BME280;21913;52.456;13.634;2023-05-12T23:00:16;100644.66;;;16.43;67.89
25156;BME280;21913;52.456;13.634;2023-05-12T23:05:18;100644.69;;;16.40;67.94
25156;BME280;21913;52.456;13.634;2023-05-12T23:10:20;100645.56;;;16.39;68.01
25156;BME280;21913;52.456;13.634;2023-05-12T23:15:21;100649.06;;;16.38;68.34
25156;BME280;21913;52.456;13.634;2023-05-12T23:20:23;100643.00;;;16.36;68.28
25156;BME280;21913;52.456;13.634;2023-05-12T23:25:24;100643.88;;;16.35;68.12
25156;BME280;21913;52.456;13.634;2023-05-12T23:30:26;100642.16;;;16.34;68.17
25156;BME280;21913;52.456;13.634;2023-05-12T23:35:27;100643.06;;;16.33;68.46
25156;BME280;21913;52.456;13.634;2023-05-12T23:40:29;100647.41;;;16.30;68.59
25156;BME280;21913;52.456;13.634;2023-05-12T23:45:31;100645.69;;;16.29;68.59
25156;BME280;21913;52.456;13.634;2023-05-12T23:50:33;100643.97;;;16.28;68.55
25156;BME280;21913;52.456;13.634;2023-05-12T23:55:35;100643.16;;;16.26;68.47
